createdAt,value
2023-06-25T00:01:50.889Z,25.49
2023-06-25T00:04:17.790Z,25.49
2023-06-25T00:06:44.642Z,25.52
2023-06-25T00:09:11.474Z,25.55
2023-06-25T00:11:38.260Z,25.61
2023-06-25T00:14:05.204Z,25.65
2023-06-25T00:16:32.054Z,25.66
2023-06-25T00:18:58.807Z,25.61
2023-06-25T00:21:25.496Z,25.55
2023-06-25T00:23:52.251Z,25.49
2023-06-25T00:26:19.087Z,25.42
2023-06-25T00:28:46.477Z,25.35
2023-06-25T00:31:14.285Z,25.29
2023-06-25T00:33:43.153Z,25.24
2023-06-25T00:36:10.203Z,25.20
2023-06-25T00:38:40.855Z,25.17
2023-06-25T00:41:12.397Z,25.13
2023-06-25T00:43:43.398Z,25.10
2023-06-25T00:46:14.386Z,25.06
2023-06-25T00:48:47.442Z,25.02
2023-06-25T00:51:19.159Z,24.97
2023-06-25T00:53:46.740Z,24.92
2023-06-25T00:56:13.975Z,24.87
2023-06-25T00:58:41.790Z,24.82
2023-06-25T01:01:18.476Z,24.76
2023-06-25T01:03:55.970Z,24.72
2023-06-25T01:06:31.142Z,24.68
2023-06-25T01:09:00.893Z,24.65
2023-06-25T01:11:29.686Z,24.62
2023-06-25T01:13:56.905Z,24.59
2023-06-25T01:16:24.357Z,24.57
2023-06-25T01:19:03.860Z,24.53
2023-06-25T01:21:32.867Z,24.48
2023-06-25T01:24:00.310Z,24.42
2023-06-25T01:26:27.845Z,24.34
2023-06-25T01:28:57.841Z,24.25
2023-06-25T01:31:32.386Z,24.17
2023-06-25T01:34:00.184Z,24.10
2023-06-25T01:36:26.944Z,24.06
2023-06-25T01:38:53.691Z,24.02
2023-06-25T01:41:20.435Z,24.01
2023-06-25T01:43:47.182Z,23.99
2023-06-25T01:46:14.032Z,23.93
2023-06-25T01:48:40.968Z,23.89
2023-06-25T01:51:07.757Z,23.86
2023-06-25T01:53:34.472Z,23.83
2023-06-25T01:56:01.174Z,23.80
2023-06-25T01:58:28.166Z,23.76
2023-06-25T02:00:54.909Z,23.72
2023-06-25T02:03:21.903Z,23.69
2023-06-25T02:05:48.842Z,23.67
2023-06-25T02:08:15.710Z,23.63
2023-06-25T02:10:42.512Z,23.59
2023-06-25T02:13:09.571Z,23.53
2023-06-25T02:15:36.642Z,23.49
2023-06-25T02:18:04.202Z,23.45
2023-06-25T02:20:31.061Z,23.41
2023-06-25T02:22:57.846Z,23.37
2023-06-25T02:25:24.701Z,23.33
2023-06-25T02:27:51.465Z,23.32
2023-06-25T02:30:18.316Z,23.30
2023-06-25T02:32:45.109Z,23.29
2023-06-25T02:35:12.001Z,23.27
2023-06-25T02:37:38.768Z,23.24
2023-06-25T02:40:06.410Z,23.21
2023-06-25T02:42:33.239Z,23.19
2023-06-25T02:45:00.047Z,23.17
2023-06-25T02:47:27.513Z,23.13
2023-06-25T02:49:54.615Z,23.09
2023-06-25T02:52:21.501Z,23.05
2023-06-25T02:54:48.299Z,22.96
2023-06-25T02:57:15.441Z,22.81
2023-06-25T02:59:42.245Z,22.68
2023-06-25T03:02:09.111Z,22.58
2023-06-25T03:04:35.950Z,22.45
2023-06-25T03:07:02.756Z,22.33
2023-06-25T03:09:29.678Z,22.25
2023-06-25T03:11:56.934Z,22.20
2023-06-25T03:16:53.620Z,22.08
2023-06-25T03:19:20.468Z,22.03
2023-06-25T03:21:47.230Z,22.02
2023-06-25T03:24:15.884Z,21.98
2023-06-25T03:26:43.065Z,21.94
2023-06-25T03:29:09.856Z,21.92
2023-06-25T03:31:36.663Z,21.88
2023-06-25T03:34:03.813Z,21.87
2023-06-25T03:36:31.370Z,21.85
2023-06-25T03:38:58.314Z,21.83
2023-06-25T03:41:26.226Z,21.83
2023-06-25T03:43:53.127Z,21.84
2023-06-25T03:46:20.883Z,21.84
2023-06-25T03:48:48.605Z,21.84
2023-06-25T03:51:15.680Z,21.84
2023-06-25T03:53:43.044Z,21.84
2023-06-25T03:56:10.022Z,21.85
2023-06-25T03:58:37.230Z,21.84
2023-06-25T04:01:04.613Z,21.82
2023-06-25T04:03:31.429Z,21.84
2023-06-25T04:05:58.376Z,21.84
2023-06-25T04:08:25.120Z,21.86
2023-06-25T04:10:53.027Z,21.89
2023-06-25T04:13:20.410Z,21.90
2023-06-25T04:15:47.583Z,21.92
2023-06-25T04:18:15.063Z,21.95
2023-06-25T04:20:42.012Z,21.99
2023-06-25T04:23:09.351Z,22.05
2023-06-25T04:25:36.852Z,22.06
2023-06-25T04:28:05.431Z,22.07
2023-06-25T04:30:32.369Z,22.08
2023-06-25T04:32:59.778Z,22.05
2023-06-25T04:35:26.599Z,22.01
2023-06-25T04:37:53.478Z,21.96
2023-06-25T04:40:20.725Z,21.97
2023-06-25T04:42:47.836Z,21.94
2023-06-25T04:45:16.212Z,21.96
2023-06-25T04:47:43.014Z,22.00
2023-06-25T04:50:10.880Z,22.03
2023-06-25T04:52:37.717Z,22.07
2023-06-25T04:55:05.117Z,22.12
2023-06-25T04:57:32.322Z,22.16
2023-06-25T04:59:59.108Z,22.21
2023-06-25T05:02:25.954Z,22.28
2023-06-25T05:04:52.740Z,22.35
2023-06-25T05:07:19.498Z,22.40
2023-06-25T05:09:46.289Z,22.49
2023-06-25T05:12:13.157Z,22.57
2023-06-25T05:14:40.006Z,22.67
2023-06-25T05:17:06.926Z,22.85
2023-06-25T05:19:33.684Z,23.10
2023-06-25T05:22:00.482Z,23.40
2023-06-25T05:24:27.223Z,23.73
2023-06-25T05:26:54.018Z,24.10
2023-06-25T05:29:20.806Z,24.47
2023-06-25T05:31:47.744Z,24.78
2023-06-25T05:34:14.790Z,25.07
2023-06-25T05:36:41.568Z,25.37
2023-06-25T05:39:08.331Z,25.62
2023-06-25T05:41:39.448Z,25.86
2023-06-25T05:44:06.139Z,26.14
2023-06-25T05:46:32.949Z,26.44
2023-06-25T05:48:59.781Z,26.74
2023-06-25T05:51:26.563Z,27.01
2023-06-25T05:53:55.382Z,27.23
2023-06-25T05:56:22.200Z,27.36
2023-06-25T05:58:48.972Z,27.46
2023-06-25T06:01:15.757Z,27.62
2023-06-25T06:03:42.752Z,27.76
2023-06-25T06:06:10.565Z,27.93
2023-06-25T06:08:37.552Z,28.13
2023-06-25T06:11:04.334Z,28.28
2023-06-25T06:13:31.072Z,28.40
2023-06-25T06:15:57.876Z,28.48
2023-06-25T06:18:25.773Z,28.55
2023-06-25T06:20:52.484Z,28.62
2023-06-25T06:23:19.970Z,28.73
2023-06-25T06:25:46.750Z,28.87
2023-06-25T06:28:13.540Z,29.02
2023-06-25T06:30:40.529Z,29.18
2023-06-25T06:33:07.514Z,29.33
2023-06-25T06:35:34.476Z,29.50
2023-06-25T06:38:01.743Z,29.68
2023-06-25T06:40:28.806Z,29.84
2023-06-25T06:42:55.561Z,29.98
2023-06-25T06:45:22.394Z,30.09
2023-06-25T06:47:49.254Z,30.17
2023-06-25T06:50:16.073Z,30.28
2023-06-25T06:52:44.705Z,30.44
2023-06-25T06:55:12.822Z,30.59
2023-06-25T06:57:39.672Z,30.72
2023-06-25T07:00:07.241Z,30.82
2023-06-25T07:02:34.061Z,30.91
2023-06-25T07:05:01.110Z,31.01
2023-06-25T07:07:28.319Z,31.08
2023-06-25T07:09:55.314Z,31.18
2023-06-25T07:12:22.847Z,31.30
2023-06-25T07:14:49.781Z,31.40
2023-06-25T07:17:16.764Z,31.50
2023-06-25T07:19:45.197Z,31.61
2023-06-25T07:22:12.187Z,31.75
2023-06-25T07:24:38.954Z,31.84
2023-06-25T07:27:07.655Z,31.85
2023-06-25T07:29:36.046Z,31.83
2023-06-25T07:32:03.577Z,31.86
2023-06-25T07:34:31.544Z,31.88
2023-06-25T07:36:58.297Z,31.82
2023-06-25T07:39:27.371Z,31.67
2023-06-25T07:41:55.181Z,31.64
2023-06-25T07:44:41.704Z,31.75
2023-06-25T07:47:10.190Z,31.96
2023-06-25T07:49:36.937Z,32.10
2023-06-25T07:52:04.603Z,32.26
2023-06-25T07:54:31.522Z,32.38
2023-06-25T07:56:58.235Z,32.54
2023-06-25T07:59:28.756Z,32.71
2023-06-25T08:01:59.929Z,32.89
2023-06-25T08:04:27.539Z,33.01
2023-06-25T08:06:54.482Z,33.12
2023-06-25T08:09:21.209Z,33.25
2023-06-25T08:11:48.032Z,33.38
2023-06-25T08:14:14.732Z,33.53
2023-06-25T08:16:41.720Z,33.69
2023-06-25T08:19:08.640Z,33.80
2023-06-25T08:21:35.403Z,33.88
2023-06-25T08:24:02.310Z,33.98
2023-06-25T08:26:31.307Z,33.93
2023-06-25T08:28:58.446Z,33.95
2023-06-25T08:31:25.232Z,34.02
2023-06-25T08:33:52.055Z,34.15
2023-06-25T08:36:18.878Z,34.11
2023-06-25T08:38:45.648Z,34.02
2023-06-25T08:41:12.452Z,33.98
2023-06-25T08:43:39.292Z,34.08
2023-06-25T08:46:08.429Z,34.19
2023-06-25T08:48:37.661Z,34.35
2023-06-25T08:51:10.033Z,34.45
2023-06-25T08:53:37.393Z,34.58
2023-06-25T08:56:06.561Z,34.63
2023-06-25T08:58:33.747Z,34.63
2023-06-25T09:01:00.545Z,34.70
2023-06-25T09:03:28.649Z,34.78
2023-06-25T09:05:56.794Z,34.86
2023-06-25T09:08:25.759Z,34.98
2023-06-25T09:10:57.419Z,35.10
2023-06-25T09:13:25.684Z,35.22
2023-06-25T09:15:54.407Z,35.27
2023-06-25T09:18:25.150Z,35.36
2023-06-25T09:20:55.572Z,35.48
2023-06-25T09:23:26.100Z,35.51
2023-06-25T09:25:54.011Z,35.45
2023-06-25T09:28:21.542Z,35.55
2023-06-25T09:30:48.631Z,35.70
2023-06-25T09:33:17.291Z,35.87
2023-06-25T09:35:44.160Z,36.01
2023-06-25T09:38:11.585Z,36.06
2023-06-25T09:40:38.666Z,36.14
2023-06-25T09:43:08.052Z,36.19
2023-06-25T09:45:35.793Z,36.12
2023-06-25T09:48:03.215Z,36.13
2023-06-25T09:53:23.146Z,36.21
2023-06-25T09:55:52.540Z,36.25
2023-06-25T09:58:19.952Z,36.33
2023-06-25T10:00:47.637Z,36.47
2023-06-25T10:03:16.896Z,36.51
2023-06-25T10:05:45.177Z,36.45
2023-06-25T10:08:13.460Z,36.41
2023-06-25T10:10:40.634Z,36.38
2023-06-25T10:13:08.052Z,36.31
2023-06-25T10:15:37.596Z,36.30
2023-06-25T10:18:06.915Z,36.31
2023-06-25T10:20:36.207Z,36.34
2023-06-25T10:23:13.476Z,36.30
2023-06-25T10:25:42.985Z,36.27
2023-06-25T10:28:13.846Z,36.28
2023-06-25T10:30:46.472Z,36.28
2023-06-25T10:33:18.520Z,36.39
2023-06-25T10:35:49.093Z,36.53
2023-06-25T10:38:17.250Z,36.60
2023-06-25T10:40:44.245Z,36.64
2023-06-25T10:43:11.073Z,36.68
2023-06-25T10:45:38.116Z,36.70
2023-06-25T10:48:11.843Z,36.69
2023-06-25T10:50:39.235Z,36.69
2023-06-25T10:53:16.042Z,36.67
2023-06-25T10:55:48.401Z,36.61
2023-06-25T10:58:20.407Z,36.64
2023-06-25T11:00:54.936Z,36.70
2023-06-25T11:03:22.675Z,36.74
2023-06-25T11:05:50.061Z,36.75
2023-06-25T11:08:17.137Z,36.77
2023-06-25T11:10:45.147Z,36.85
2023-06-25T11:13:13.348Z,36.97
2023-06-25T11:15:43.453Z,37.10
2023-06-25T11:18:10.898Z,37.19
2023-06-25T11:20:42.384Z,37.24
2023-06-25T11:23:12.773Z,37.29
2023-06-25T11:25:40.480Z,37.32
2023-06-25T11:28:15.657Z,37.33
2023-06-25T11:30:45.038Z,37.42
2023-06-25T11:33:19.266Z,37.46
2023-06-25T11:35:52.204Z,37.44
2023-06-25T11:38:29.742Z,37.35
2023-06-25T11:40:58.524Z,37.33
2023-06-25T11:43:26.166Z,37.36
2023-06-25T11:45:54.168Z,37.35
2023-06-25T11:48:21.717Z,37.34
2023-06-25T11:50:53.778Z,37.33
2023-06-25T11:53:20.656Z,37.36
2023-06-25T11:55:47.566Z,37.46
2023-06-25T11:58:14.529Z,37.52
2023-06-25T12:00:44.979Z,37.58
2023-06-25T12:03:12.630Z,37.59
2023-06-25T12:05:39.706Z,37.57
2023-06-25T12:08:06.951Z,37.62
2023-06-25T12:10:33.675Z,37.71
2023-06-25T12:13:00.497Z,37.76
2023-06-25T12:15:27.276Z,37.76
2023-06-25T12:17:54.050Z,37.68
2023-06-25T12:20:20.887Z,37.42
2023-06-25T12:22:47.939Z,37.29
2023-06-25T12:25:14.850Z,37.33
2023-06-25T12:27:41.786Z,37.41
2023-06-25T12:30:09.593Z,37.40
2023-06-25T12:32:36.547Z,37.31
2023-06-25T12:35:03.952Z,37.34
2023-06-25T12:37:30.754Z,37.39
2023-06-25T12:39:58.580Z,37.46
2023-06-25T12:42:25.411Z,37.54
2023-06-25T12:44:52.284Z,37.60
2023-06-25T12:47:19.168Z,37.55
2023-06-25T12:49:46.126Z,37.54
2023-06-25T12:52:13.074Z,37.56
2023-06-25T12:54:39.852Z,37.62
2023-06-25T12:57:06.659Z,37.65
2023-06-25T12:59:33.864Z,37.64
2023-06-25T13:02:00.834Z,37.66
2023-06-25T13:04:27.868Z,37.71
2023-06-25T13:06:54.596Z,37.75
2023-06-25T13:09:21.560Z,37.75
2023-06-25T13:11:48.424Z,37.69
2023-06-25T13:14:15.841Z,37.63
2023-06-25T13:16:42.694Z,37.54
2023-06-25T13:19:09.598Z,37.50
2023-06-25T13:21:36.543Z,37.46
2023-06-25T13:24:03.793Z,37.50
2023-06-25T13:26:30.611Z,37.52
2023-06-25T13:28:57.461Z,37.51
2023-06-25T13:31:24.339Z,37.40
2023-06-25T13:33:51.983Z,37.33
2023-06-25T13:36:18.849Z,37.31
2023-06-25T13:38:45.607Z,37.30
2023-06-25T13:41:12.308Z,37.34
2023-06-25T13:43:39.163Z,37.27
2023-06-25T13:46:06.149Z,37.26
2023-06-25T13:48:33.003Z,37.26
2023-06-25T13:51:01.752Z,37.23
2023-06-25T13:53:29.614Z,37.03
2023-06-25T13:55:58.101Z,36.88
2023-06-25T13:58:25.307Z,36.83
2023-06-25T14:00:56.275Z,36.88
2023-06-25T14:03:25.049Z,36.90
2023-06-25T14:05:52.203Z,36.92
2023-06-25T14:08:19.243Z,36.97
2023-06-25T14:10:46.132Z,37.04
2023-06-25T14:13:12.976Z,37.04
2023-06-25T14:16:20.816Z,37.14
2023-06-25T14:18:47.620Z,37.21
2023-06-25T14:21:14.530Z,37.18
2023-06-25T14:23:41.262Z,37.06
2023-06-25T14:26:08.043Z,36.91
2023-06-25T14:28:34.818Z,36.88
2023-06-25T14:31:01.727Z,36.82
2023-06-25T14:33:31.640Z,36.82
2023-06-25T14:35:58.495Z,36.79
2023-06-25T14:38:25.286Z,36.79
2023-06-25T14:40:52.098Z,36.78
2023-06-25T14:43:18.815Z,36.73
2023-06-25T14:45:45.697Z,36.68
2023-06-25T14:48:12.648Z,36.67
2023-06-25T14:50:40.282Z,36.69
2023-06-25T14:53:07.121Z,36.71
2023-06-25T14:55:37.988Z,36.69
2023-06-25T14:58:07.070Z,36.60
2023-06-25T15:00:33.894Z,36.54
2023-06-25T15:03:00.933Z,36.56
2023-06-25T15:05:27.806Z,36.59
2023-06-25T15:07:54.632Z,36.49
2023-06-25T15:10:21.357Z,36.36
2023-06-25T15:12:48.185Z,36.26
2023-06-25T15:15:15.106Z,36.23
2023-06-25T15:17:41.999Z,36.22
2023-06-25T15:20:09.671Z,36.24
2023-06-25T15:22:36.450Z,36.23
2023-06-25T15:25:04.240Z,36.22
2023-06-25T15:27:31.066Z,36.18
2023-06-25T15:29:58.567Z,36.10
2023-06-25T15:32:25.289Z,35.99
2023-06-25T15:34:52.052Z,35.94
2023-06-25T15:37:18.759Z,35.93
2023-06-25T15:39:46.317Z,35.86
2023-06-25T15:42:13.079Z,35.80
2023-06-25T15:44:39.862Z,35.81
2023-06-25T15:47:06.768Z,35.79
2023-06-25T15:49:33.598Z,35.77
2023-06-25T15:52:00.417Z,35.71
2023-06-25T15:54:27.211Z,35.67
2023-06-25T15:56:54.163Z,35.62
2023-06-25T15:59:21.704Z,35.55
2023-06-25T16:01:49.041Z,35.49
2023-06-25T16:04:16.028Z,35.44
2023-06-25T16:06:42.776Z,35.30
2023-06-25T16:09:09.532Z,35.17
2023-06-25T16:11:37.458Z,35.07
2023-06-25T16:14:04.237Z,34.96
2023-06-25T16:16:31.204Z,34.84
2023-06-25T16:19:14.996Z,34.76
2023-06-25T16:21:46.301Z,34.67
2023-06-25T16:24:13.088Z,34.63
2023-06-25T16:26:39.804Z,34.59
2023-06-25T16:29:06.782Z,34.50
2023-06-25T16:31:33.686Z,34.40
2023-06-25T16:34:00.489Z,34.34
2023-06-25T16:36:27.234Z,34.27
2023-06-25T16:38:53.928Z,34.19
2023-06-25T16:41:20.864Z,34.10
2023-06-25T16:43:47.823Z,34.01
2023-06-25T16:46:14.655Z,33.93
2023-06-25T16:48:44.158Z,33.85
2023-06-25T16:51:10.956Z,33.77
2023-06-25T16:53:37.687Z,33.69
2023-06-25T16:56:04.799Z,33.64
2023-06-25T16:58:31.558Z,33.61
2023-06-25T17:00:58.372Z,33.55
2023-06-25T17:03:25.693Z,33.50
2023-06-25T17:05:52.577Z,33.47
2023-06-25T17:08:19.319Z,33.45
2023-06-25T17:10:47.184Z,33.40
2023-06-25T17:13:14.000Z,33.31
2023-06-25T17:15:40.687Z,33.25
2023-06-25T17:18:07.806Z,33.21
2023-06-25T17:20:34.569Z,33.15
2023-06-25T17:23:01.437Z,33.10
2023-06-25T17:25:28.150Z,33.06
2023-06-25T17:27:54.978Z,33.02
2023-06-25T17:30:21.748Z,32.98
2023-06-25T17:32:48.952Z,32.94
2023-06-25T17:35:15.778Z,32.88
2023-06-25T17:37:42.481Z,32.81
2023-06-25T17:40:09.684Z,32.74
2023-06-25T17:42:36.477Z,32.66
2023-06-25T17:45:03.317Z,32.58
2023-06-25T17:47:30.185Z,32.52
2023-06-25T17:49:57.082Z,32.46
2023-06-25T17:52:24.161Z,32.38
2023-06-25T17:54:50.924Z,32.34
2023-06-25T17:57:17.754Z,32.31
2023-06-25T17:59:44.544Z,32.28
2023-06-25T18:02:11.282Z,32.25
2023-06-25T18:04:42.073Z,32.25
2023-06-25T18:07:09.701Z,32.23
2023-06-25T18:09:37.872Z,32.22
2023-06-25T18:12:05.027Z,32.17
2023-06-25T18:14:31.904Z,32.10
2023-06-25T18:16:58.659Z,32.06
2023-06-25T18:19:25.430Z,32.03
2023-06-25T18:21:52.409Z,32.00
2023-06-25T18:24:19.343Z,31.96
2023-06-25T18:26:46.336Z,31.93
2023-06-25T18:29:13.256Z,31.90
2023-06-25T18:31:42.825Z,31.86
2023-06-25T18:34:17.304Z,31.81
2023-06-25T18:36:46.697Z,31.76
2023-06-25T18:39:14.765Z,31.68
2023-06-25T18:41:41.711Z,31.54
2023-06-25T18:44:08.489Z,31.34
2023-06-25T18:46:37.232Z,31.05
2023-06-25T18:49:04.182Z,30.84
2023-06-25T18:51:30.908Z,30.67
2023-06-25T18:53:57.726Z,30.54
2023-06-25T18:56:24.702Z,30.45
2023-06-25T18:58:51.532Z,30.34
2023-06-25T19:01:18.300Z,30.24
2023-06-25T19:03:45.154Z,30.11
2023-06-25T19:06:12.109Z,29.99
2023-06-25T19:08:38.853Z,29.88
2023-06-25T19:11:05.727Z,29.75
2023-06-25T19:13:32.534Z,29.61
2023-06-25T19:15:59.479Z,29.50
2023-06-25T19:18:26.231Z,29.38
2023-06-25T19:20:52.952Z,29.26
2023-06-25T19:25:49.366Z,29.15
2023-06-25T19:28:16.300Z,29.08
2023-06-25T19:30:43.127Z,29.06
2023-06-25T19:33:11.642Z,29.04
2023-06-25T19:35:38.815Z,28.98
2023-06-25T19:38:05.815Z,28.92
2023-06-25T19:40:32.601Z,28.86
2023-06-25T19:42:59.435Z,28.80
2023-06-25T19:45:26.276Z,28.74
2023-06-25T19:47:53.170Z,28.70
2023-06-25T19:50:20.031Z,28.63
2023-06-25T19:52:46.731Z,28.56
2023-06-25T19:55:13.526Z,28.47
2023-06-25T19:57:40.639Z,28.35
2023-06-25T20:00:07.781Z,28.25
2023-06-25T20:02:41.952Z,28.16
2023-06-25T20:05:09.098Z,28.03
2023-06-25T20:07:36.042Z,27.94
2023-06-25T20:10:02.917Z,27.78
2023-06-25T20:12:30.104Z,27.66
2023-06-25T20:14:59.631Z,27.57
2023-06-25T20:17:28.246Z,27.54
2023-06-25T20:19:55.217Z,27.50
2023-06-25T20:22:22.001Z,27.43
2023-06-25T20:24:48.788Z,27.37
2023-06-25T20:27:15.610Z,27.27
2023-06-25T20:29:43.005Z,27.16
2023-06-25T20:32:10.027Z,27.10
2023-06-25T20:34:36.772Z,27.06
2023-06-25T20:37:10.428Z,27.04
2023-06-25T20:39:37.216Z,27.03
2023-06-25T20:42:04.149Z,27.01
2023-06-25T20:44:34.683Z,26.96
2023-06-25T20:47:02.662Z,26.87
2023-06-25T20:49:30.715Z,26.81
2023-06-25T20:51:58.425Z,26.78
2023-06-25T20:54:28.840Z,26.75
2023-06-25T20:56:56.703Z,26.69
2023-06-25T20:59:23.776Z,26.66
2023-06-25T21:01:59.807Z,26.68
2023-06-25T21:04:26.574Z,26.72
2023-06-25T21:06:53.531Z,26.70
2023-06-25T21:09:20.512Z,26.64
2023-06-25T21:11:47.263Z,26.62
2023-06-25T21:14:14.401Z,26.59
2023-06-25T21:16:41.383Z,26.53
2023-06-25T21:19:08.302Z,26.47
2023-06-25T21:21:36.343Z,26.42
2023-06-25T21:24:03.445Z,26.35
2023-06-25T21:26:30.174Z,26.29
2023-06-25T21:28:57.116Z,26.25
2023-06-25T21:31:23.981Z,26.18
2023-06-25T21:33:50.821Z,26.09
2023-06-25T21:36:18.381Z,26.01
2023-06-25T21:38:45.236Z,25.90
2023-06-25T21:41:12.120Z,25.82
2023-06-25T21:43:38.877Z,25.76
2023-06-25T21:46:05.666Z,25.73
2023-06-25T21:48:32.539Z,25.73
2023-06-25T21:50:59.989Z,25.72
2023-06-25T21:53:27.780Z,25.69
2023-06-25T21:55:54.557Z,25.66
2023-06-25T21:58:21.438Z,25.66
2023-06-25T22:00:48.242Z,25.64
2023-06-25T22:03:15.086Z,25.67
2023-06-25T22:05:43.442Z,25.68
2023-06-25T22:08:10.323Z,25.65
2023-06-25T22:10:40.004Z,25.65
2023-06-25T22:13:07.091Z,25.65
2023-06-25T22:15:34.007Z,25.63
2023-06-25T22:18:00.935Z,25.65
2023-06-25T22:20:28.656Z,25.68
2023-06-25T22:22:55.438Z,25.64
2023-06-25T22:25:22.224Z,25.61
2023-06-25T22:27:52.464Z,25.61
2023-06-25T22:30:20.491Z,25.62
2023-06-25T22:32:48.351Z,25.64
2023-06-25T22:35:15.505Z,25.66
2023-06-25T22:37:42.850Z,25.67
2023-06-25T22:40:10.595Z,25.66
2023-06-25T22:42:37.790Z,25.63
2023-06-25T22:45:06.031Z,25.56
2023-06-25T22:47:33.010Z,25.46
2023-06-25T22:49:59.893Z,25.45
2023-06-25T22:52:26.754Z,25.48
2023-06-25T22:54:53.599Z,25.50
2023-06-25T22:57:21.738Z,25.48
2023-06-25T22:59:48.713Z,25.48
2023-06-25T23:02:15.636Z,25.48
2023-06-25T23:04:45.894Z,25.49
2023-06-25T23:07:13.266Z,25.46
2023-06-25T23:09:40.142Z,25.37
2023-06-25T23:12:07.316Z,25.31
2023-06-25T23:14:34.096Z,25.28
2023-06-25T23:17:01.067Z,25.28
2023-06-25T23:19:33.182Z,25.30
2023-06-25T23:22:03.888Z,25.30
2023-06-25T23:24:42.394Z,25.30
2023-06-25T23:27:09.610Z,25.29
2023-06-25T23:29:37.793Z,25.26
2023-06-25T23:32:09.109Z,25.19
2023-06-25T23:34:36.335Z,25.14
2023-06-25T23:37:04.334Z,25.08
2023-06-25T23:39:34.299Z,25.07
2023-06-25T23:42:01.261Z,25.08
2023-06-25T23:44:27.981Z,25.08
2023-06-25T23:46:54.798Z,25.05
2023-06-25T23:49:21.921Z,25.01
2023-06-25T23:51:49.899Z,24.99
2023-06-25T23:54:16.702Z,24.92
2023-06-25T23:56:43.520Z,24.89
2023-06-25T23:59:10.296Z,24.89
